Hastings, Nebraska
Current Conditions -  °F | °C
As of 5:53 PM on Monday 24 Nov 2014 (Local Time) from KHSI Reporting Station
Clear Clear  
Wind Chill: 24°   Ceiling: Unl
Heat Index: 32°   Visibility: 10mi
Dew Point: 16°   Wind: 9mph
Humidity: 52%   Direction: 310°NW
Pressure: 29.99"   Gusts: NA
Location:  40.59°N, 98.39°W
Report Text: KHSI 242353Z AUTO 31008KT 10SM CLR 00/M09 A2999 RMK AO2 SLP175 T00001089 10050 20000 52034
Loading
Personal Weather Stations






























Interactive Weather Map New forecast layout! Learn more

10-Day Weather Forecast

Advertisements
Track Severe Weather on mobile